^^

..:: Metar reader and decoder ::..




OSSERVAZIONI E PREVISIONI METEOROLOGICHE DAGLI AEROPORTI ITALIANI
(messaggi METAR)

 


LIPX - Villafranca(Cv/M, Italy
Distanza dalla stazione: NNE 28km
Dati ricevuti: Wed, 22-Sep-2021 14:50
Non attivo
parzialmente nuvoloso
parzialmente nuvoloso
 Vento da variabile
Vento: variabile 6 km/h
Temperatura: 22°C
P.to di Rugiada: 11°C
Umidità: 50%
Barometro: 1022 hPa
Nuvole: parzialmente nuvoloso
Visibilità: 10 km
Dettaglio nuvole: parzialmente nuvoloso 1219 m
2021/09/22 12:50 LIPX 221250Z VRB03KT 9999 SCT040 22/11 Q1022
LIPO - Brescia/Montichiari, Italy
Distanza dalla stazione: NO 38km
Dati ricevuti: Wed, 22-Sep-2021 14:50
Non attivo
Sereno
Sereno
 Vento da variabile
Vento: variabile 6 km/h
Temperatura: 23°C
P.to di Rugiada: 11°C
Umidità: 47%
Barometro: 1022 hPa
Nuvole: Sereno
Visibilità: 10 km
2021/09/22 12:50 LIPO 221250Z AUTO VRB03KT 9999 NCD 23/11 Q1022
 
LIPL - Ghedi (it-Afb), Italy
Distanza dalla stazione: NO 42km
Dati ricevuti: Wed, 22-Sep-2021 13:55
Non attivo
parzialmente nuvoloso
parzialmente nuvoloso
 Vento da OSO
Vento: OSO 6 km/h
Temperatura: 23°C
P.to di Rugiada: 14°C
Umidità: 57%
Barometro: 1021 hPa
Nuvole: parzialmente nuvoloso
Visibilità: 10 km
Dettaglio nuvole: parzialmente nuvoloso 1341 m
2021/09/22 11:55 LIPL 221155Z 24003KT 9999 SCT044 23/14 Q1021 RMK SCT VIS MIN 9999 WIND THR31 30003KT WIND THR13 15003KT BLU
LIMP - Parma, Italy
Distanza dalla stazione: SO 49km
Dati ricevuti: Wed, 22-Sep-2021 13:50
Non attivo
Sereno
Sereno
 Vento da variabile
Vento: variabile 4 km/h
Temperatura: 23°C
P.to di Rugiada: 12°C
Umidità: 50%
Barometro: 1022 hPa
Sommario: Sereno
Visibilità: superiore a 10 km
2021/09/22 11:50 LIMP 221150Z VRB02KT CAVOK 23/12 Q1022
 
LIMS - Piacenza (it-Afb, Italy
Distanza dalla stazione: OSO 81km
Dati ricevuti: Wed, 22-Sep-2021 13:55
Non attivo
Sereno
Sereno
 Vento da ESE
Vento: ESE 7 km/h
Temperatura: 23°C
P.to di Rugiada: 15°C
Umidità: 61%
Barometro: 1021 hPa
Sommario: Sereno
Visibilità: superiore a 10 km
2021/09/22 11:55 LIMS 221155Z 12004KT CAVOK 23/15 Q1021
LIPF - Ferrara (aut), Italy
Distanza dalla stazione: ESE 84km
Dati ricevuti: Wed, 22-Sep-2021 13:55
Non attivo
parzialmente nuvoloso
parzialmente nuvoloso
 Vento da E
Vento: E 4 km/h
Temperatura: 23°C
P.to di Rugiada: 12°C
Umidità: 50%
Barometro: 1022 hPa
Nuvole: parzialmente nuvoloso
Visibilità: 10 km
Dettaglio nuvole: parzialmente nuvoloso 914 m
2021/09/22 11:55 LIPF 221155Z 09002KT 9999 SCT030 23/12 Q1022
 
LIPE - Bologna/Borgo (a, Italy
Distanza dalla stazione: SE 88km
Dati ricevuti: Wed, 22-Sep-2021 14:50
Non attivo
Poco nuvoloso
Poco nuvoloso
 Vento da E
Vento: E 13 km/h
Temperatura: 24°C
P.to di Rugiada: 11°C
Umidità: 44%
Barometro: 1021 hPa
Nuvole: Poco nuvoloso
Visibilità: 10 km
Dettaglio nuvole: Poco nuvoloso 1219 m
2021/09/22 12:50 LIPE 221250Z 08007KT 030V110 9999 FEW040 24/11 Q1021
LIPU - Padova (civ/It-A, Italy
Distanza dalla stazione: ENE 93km
Dati ricevuti: Wed, 22-Sep-2021 08:00
Non attivo
Molto nuvoloso
Molto nuvoloso
 Vento da variabile
Vento: variabile 4 km/h
Temperatura: 15°C
P.to di Rugiada: 12°C
Umidità: 82%
Barometro: 1023 hPa
Nuvole: Molto nuvoloso
Visibilità: 10 km
Dettaglio nuvole: Molto nuvoloso 1372 m
2021/09/22 06:00 LIPU 220600Z VRB02KT 9999 BKN045 15/12 Q1023
 
LIME - Bergamo/Orio Ser, Italy
Distanza dalla stazione: NO 95km
Dati ricevuti: Wed, 22-Sep-2021 14:50
Non attivo
parzialmente nuvoloso
parzialmente nuvoloso
 Vento da variabile
Vento: variabile 6 km/h
Temperatura: 22°C
P.to di Rugiada: 14°C
Umidità: 61%
Barometro: 1022 hPa
Nuvole: parzialmente nuvoloso
Visibilità: 10 km
Dettaglio nuvole: parzialmente nuvoloso 914 m
2021/09/22 12:50 LIME 221250Z VRB03KT 9999 SCT030 22/14 Q1022 NOSIG
LIMT - Cisa Pass, Italy
Distanza dalla stazione: SO 103km
Dati ricevuti: Mon, 23-Sep-2019 13:55
Non attivo
Nebbia
Nebbia
 Vento da calm
Vento: Calma
Temperatura: 10°C
P.to di Rugiada: 10°C
Umidità: 100%
Barometro: 1014 hPa
Sommario: Nebbia
Visibilità: 0 km
2019/09/23 11:55 LIMT 231155Z 00000KT 0000 FG VV/// 10/10 Q1014 RMK MON INVIS VAL INVIS VIS MIN 0000
 
LIVC - Cimone Mountain, Italy
Distanza dalla stazione: S 108km
Dati ricevuti: Wed, 22-Sep-2021 06:55
Non attivo

 Vento da E
Vento: E 7 km/h
Temperatura: 7°C
Temperatura del vento: 6°C
P.to di Rugiada: -2°C
Umidità: 53%
Barometro: 1028 hPa
2021/09/22 04:55 LIVC 220455Z AUTO 09004KT //// 07/M02 Q1028
LIVP - Paganella Mounta, Italy
Distanza dalla stazione: NNE 112km
Dati ricevuti: Wed, 22-Sep-2021 13:55
Non attivo
Poco nuvoloso
Poco nuvoloso
 Vento da NE
Vento: NE 24 km/h
Temperatura: 7°C
Temperatura del vento: 3°C
P.to di Rugiada: -4°C
Umidità: 46%
Barometro: 1026 hPa
Nuvole: Poco nuvoloso
Visibilità: 10 km
Dettaglio nuvole: Poco nuvoloso 30 m
2021/09/22 11:55 LIVP 221155Z 04013KT 9999 FEW001 07/M04 Q1026 RMK OVC OVC200 MON W CLD SCT VAL S CLD SCT VIS MIN 9999
 
LIML - Milano/Linate, Italy
Distanza dalla stazione: ONO 115km
Dati ricevuti: Wed, 22-Sep-2021 14:50
Non attivo
parzialmente nuvoloso
parzialmente nuvoloso
 Vento da variabile
Vento: variabile 2 km/h
Temperatura: 22°C
P.to di Rugiada: 13°C
Umidità: 57%
Barometro: 1021 hPa
Nuvole: parzialmente nuvoloso
Visibilità: 10 km
Dettaglio nuvole: parzialmente nuvoloso 914 m
2021/09/22 12:50 LIML 221250Z VRB01KT 9999 SCT030 22/13 Q1021 NOSIG
LIPS - Istrana (it-Afb), Italy
Distanza dalla stazione: ENE 123km
Dati ricevuti: Wed, 22-Sep-2021 13:55
Non attivo
parzialmente nuvoloso
parzialmente nuvoloso
 Vento da E
Vento: E 7 km/h
Temperatura: 24°C
P.to di Rugiada: 14°C
Umidità: 54%
Barometro: 1022 hPa
Nuvole: parzialmente nuvoloso
Visibilità: 10 km
Dettaglio nuvole: parzialmente nuvoloso 914 m
2021/09/22 11:55 LIPS 221155Z 10004KT 9999 SCT030 24/14 Q1022 RMK BKN SCT120 VIS MIN 9999 WIND THR26 00000KT WIND THR08 00000KT BLK BLU
 
LIPH - Treviso(Civ/It-A, Italy
Distanza dalla stazione: ENE 127km
Dati ricevuti: Wed, 22-Sep-2021 14:50
Non attivo
parzialmente nuvoloso
parzialmente nuvoloso
 Vento da SE
Vento: SE 7 km/h
Temperatura: 21°C
P.to di Rugiada: 11°C
Umidità: 53%
Barometro: 1022 hPa
Nuvole: parzialmente nuvoloso
Visibilità: 10 km
Dettaglio nuvole: parzialmente nuvoloso 1219 m
2021/09/22 12:50 LIPH 221250Z 14004KT 110V180 9999 SCT040 21/11 Q1022
LIPZ - Venezia/Tessera, Italy
Distanza dalla stazione: ENE 133km
Dati ricevuti: Wed, 22-Sep-2021 14:50
Non attivo
parzialmente nuvoloso
parzialmente nuvoloso
 Vento da ESE
Vento: ESE 11 km/h
Temperatura: 22°C
P.to di Rugiada: 12°C
Umidità: 53%
Barometro: 1022 hPa
Nuvole: parzialmente nuvoloso
Visibilità: 10 km
Dettaglio nuvole: parzialmente nuvoloso 1219 m
2021/09/22 12:50 LIPZ 221250Z 11006KT 080V150 9999 SCT040 22/12 Q1022 NOSIG
 
LIQW - Sarzana/Luni, Italy
Distanza dalla stazione: SSO 135km
Dati ricevuti: Wed, 22-Sep-2021 13:55
Non attivo
Poco nuvoloso
Poco nuvoloso
 Vento da SSE
Vento: SSE 9 km/h
Temperatura: 23°C
P.to di Rugiada: 12°C
Umidità: 50%
Barometro: 1021 hPa
Nuvole: Poco nuvoloso
Visibilità: 10 km
Dettaglio nuvole: Poco nuvoloso 914 m
2021/09/22 11:55 LIQW 221155Z 15005KT 9999 FEW030 23/12 Q1021
LIVR - Rolle Pass, Italy
Distanza dalla stazione: NE 150km
Dati ricevuti: Wed, 22-Sep-2021 13:55
Non attivo
Poco nuvoloso
Poco nuvoloso
 Vento da O
Vento: O 20 km/h
Temperatura: 9°C
Temperatura del vento: 6°C
P.to di Rugiada: -2°C
Umidità: 46%
Barometro: 1026 hPa
Nuvole: Poco nuvoloso
Visibilità: 10 km
Dettaglio nuvole: Poco nuvoloso 762 m
2021/09/22 11:55 LIVR 221155Z 28011KT 9999 FEW025 09/M02 Q1026 RMK BKN BKN200 MON LIB VIS MIN 9999
 
LIPC - Cervia (it-Afb), Italy
Dati ricevuti: Wed, 22-Sep-2021 13:55
Non attivo
Poco nuvoloso
Poco nuvoloso
 Vento da ESE
Vento: ESE 11 km/h
Temperatura: 22°C
P.to di Rugiada: 13°C
Umidità: 57%
Barometro: 1022 hPa
Nuvole: Poco nuvoloso
Visibilità: 10 km
Dettaglio nuvole: Poco nuvoloso 914 m
2021/09/22 11:55 LIPC 221155Z 12006KT 070V160 9999 FEW030 22/13 Q1022
LIPR - Rimini (civ/It-A, Italy
Dati ricevuti: Wed, 22-Sep-2021 14:50
Non attivo
Poco nuvoloso
Poco nuvoloso
 Vento da ENE
Vento: ENE 13 km/h
Temperatura: 21°C
P.to di Rugiada: 13°C
Umidità: 60%
Barometro: 1022 hPa
Nuvole: Poco nuvoloso
Visibilità: 10 km
Dettaglio nuvole: Poco nuvoloso 914 m
2021/09/22 12:50 LIPR 221250Z 06007KT 040V110 9999 FEW030 21/13 Q1022
 
LIPK - Forli (civ/It-Af, Italy
Distanza dalla stazione: SE 154km
Dati ricevuti: Wed, 22-Sep-2021 14:50
Non attivo
Sereno
Sereno
 Vento da E
Vento: E 13 km/h
Temperatura: 22°C
P.to di Rugiada: 10°C
Umidità: 47%
Barometro: 1022 hPa
Sommario: Sereno
Visibilità: superiore a 10 km
2021/09/22 12:50 LIPK 221250Z 08007KT CAVOK 22/10 Q1022
LIRX - Monte Calamita, Italy
Dati ricevuti: Wed, 22-Sep-2021 13:55
Non attivo
Sereno
Sereno
 Vento da calm
Vento: Calma
Temperatura: 22°C
P.to di Rugiada: 15°C
Umidità: 65%
Barometro: 1020 hPa
Sommario: Sereno
Visibilità: superiore a 10 km
2021/09/22 11:55 LIRX 221155Z 00000KT CAVOK 22/15 Q1020 RMK SKC VIS MIN 9999 VIS MAR 30 KM
 
LIVM - Punta Marina/Rav, Italy
Dati ricevuti: Wed, 22-Sep-2021 13:55
Non attivo
Sereno
Sereno
 Vento da ESE
Vento: ESE 7 km/h
Temperatura: 21°C
P.to di Rugiada: 12°C
Umidità: 57%
Barometro: 1023 hPa
Sommario: Sereno
Visibilità: superiore a 10 km
2021/09/22 11:55 LIVM 221155Z 12004KT 050V170 CAVOK 21/12 Q1023 RMK FEW FEW180 QUK 2 QUL 1 E VIS MAR 15 KM VIS MIN 9999
LIMV - Passo dei Giovi, Italy
Distanza dalla stazione: OSO 152km
Dati ricevuti: Tue, 21-Sep-2021 15:55
Non attivo
parzialmente nuvoloso
parzialmente nuvoloso
 Vento da variabile
Vento: variabile 0 km/h
Temperatura: 19°C
P.to di Rugiada: 11°C
Umidità: 60%
Barometro: 1024 hPa
Nuvole: parzialmente nuvoloso
Visibilità: 10 km
Dettaglio nuvole: parzialmente nuvoloso 213 m
2021/09/21 13:55 LIMV 211355Z /////KT 9999 SCT007 19/11 Q1024
 
LIPB - Bolzano(Civ/It-A, Italy
Distanza dalla stazione: NNE 152km
Dati ricevuti: Wed, 22-Sep-2021 14:50
Non attivo
Sereno
Sereno
 Vento da variabile
Vento: variabile 4 km/h
Temperatura: 21°C
P.to di Rugiada: 9°C
Umidità: 46%
Barometro: 1021 hPa
Sommario: Sereno
Visibilità: superiore a 10 km
2021/09/22 12:50 LIPB 221250Z VRB02KT CAVOK 21/09 Q1021
LIVD - Bolzano-Dobbiaco, Italy
Dati ricevuti: Wed, 22-Sep-2021 13:55
Non attivo

 
2021/09/22 11:55 LIVD 221155Z ///05KT CAVOK 15/M02 Q1025 RMK BKN SCT090 BKN170 VIS MIN 9999
 
LIVE - Bolzano-Passo Resia, Italy
Distanza dalla stazione: NO 160km
Dati ricevuti: Wed, 22-Sep-2021 13:55
Non attivo
Sereno
Sereno
 Vento da ENE
Vento: ENE 13 km/h
Temperatura: 14°C
P.to di Rugiada: 5°C
Umidità: 55%
Barometro: 1025 hPa
Sommario: Sereno
Visibilità: superiore a 10 km
2021/09/22 11:55 LIVE 221155Z 06007KT CAVOK 14/05 Q1025 RMK BKN BKN200 VIS MIN 9999
LIMH - Aosta-Pian Rosa (mtn T, Italy
Dati ricevuti: Wed, 22-Sep-2021 02:55
Non attivo
Sereno
Sereno
 Vento da calm
Vento: Calma
Temperatura: -1°C
P.to di Rugiada: -23°C
Umidità: 17%
Barometro: 1034 hPa
Sommario: Sereno
Visibilità: superiore a 10 km
2021/09/22 00:55 LIMH 220055Z 00000KT CAVOK M01/M23 Q1034
 
LIMZ - Cuneo/Levaldigi, Italy
Dati ricevuti: Wed, 22-Sep-2021 14:50
Non attivo

 Vento da variabile
Vento: variabile 6 km/h
Temperatura: 24°C
P.to di Rugiada: 12°C
Umidità: 47%
Barometro: 1022 hPa
Visibilità: 10 km
2021/09/22 12:50 LIMZ 221250Z AUTO VRB03KT 9999 ///////// 24/12 Q1022
LIMK - Torino-Bric Della Croce, Italy
Dati ricevuti: Wed, 22-Sep-2021 02:55
Non attivo
Sereno
Sereno
 Vento da ESE
Vento: ESE 13 km/h
Temperatura: 15°C
P.to di Rugiada: 13°C
Umidità: 88%
Barometro: 1026 hPa
Sommario: Sereno
Visibilità: superiore a 10 km
2021/09/22 00:55 LIMK 220055Z 12007KT CAVOK 15/13 Q1026
 
LIMN - Novara-Cameri (it-Afb), Italy
Dati ricevuti: Wed, 22-Sep-2021 13:55
Non attivo
Molto nuvoloso
Molto nuvoloso
 Vento da variabile
Vento: variabile 0 km/h
Temperatura: 23°C
P.to di Rugiada: 13°C
Umidità: 53%
Barometro: 1022 hPa
Nuvole: Molto nuvoloso
Visibilità: 10 km
Dettaglio nuvole: Molto nuvoloso 1219 m
2021/09/22 11:55 LIMN 221155Z /////KT 9999 BKN040 23/13 Q1022 RMK BKN VIS MIN 9999 BLU
LIPA - Pordenone-Aviano (it/Us-Af, Italy
Dati ricevuti: Wed, 22-Sep-2021 13:55
Non attivo
parzialmente nuvoloso
parzialmente nuvoloso
 Vento da OSO
Vento: OSO 7 km/h
Temperatura: 20°C
P.to di Rugiada: 12°C
Umidità: 60%
Barometro: 1023 hPa
Nuvole: parzialmente nuvoloso
Visibilità: 10 km
Dettaglio nuvole: parzialmente nuvoloso 1219 m
parzialmente nuvoloso 2134 m
2021/09/22 11:55 LIPA 221155Z 24004KT 9999 SCT040 SCT070 20/12 Q1023 RMK BKN VIS MIN 9999 WIND THR05 /////KT WIND THR23 /////KT A3024 BLU
 
LIPI - Udine-Rivolto (it-Afb), Italy
Dati ricevuti: Wed, 22-Sep-2021 13:55
Non attivo
parzialmente nuvoloso
parzialmente nuvoloso
 Vento da O
Vento: O 2 km/h
Temperatura: 21°C
P.to di Rugiada: 11°C
Umidità: 53%
Barometro: 1022 hPa
Nuvole: parzialmente nuvoloso
Visibilità: 10 km
Dettaglio nuvole: Poco nuvoloso 1524 m
parzialmente nuvoloso 2134 m
2021/09/22 11:55 LIPI 221155Z 26001KT 9999 FEW050 SCT070 21/11 Q1022 RMK OVC BKN200 VIS MIN 9999 WIND THR06 32003KT WIND THR24 13002KT BLU
LIVO - Udine-Tarvisio, Italy
Dati ricevuti: Wed, 22-Sep-2021 13:55
Non attivo
Poco nuvoloso
Poco nuvoloso
 Vento da E
Vento: E 9 km/h
Temperatura: 17°C
P.to di Rugiada: 8°C
Umidità: 56%
Barometro: 1023 hPa
Nuvole: Poco nuvoloso
Visibilità: 10 km
Dettaglio nuvole: Poco nuvoloso 1067 m
2021/09/22 11:55 LIVO 221155Z 10005KT 9999 FEW035 17/08 Q1023 RMK BKN SCT080 VIS MIN 9999
 
LIPQ - Trieste-Ronchi Dei Legionari, Italy
Dati ricevuti: Wed, 22-Sep-2021 14:50
Non attivo
Sereno
Sereno
 Vento da O
Vento: O 9 km/h
Temperatura: 22°C
P.to di Rugiada: 10°C
Umidità: 47%
Barometro: 1022 hPa
Nuvole: Sereno
Visibilità: 10 km
2021/09/22 12:50 LIPQ 221250Z AUTO 28005KT 210V320 9999 NCD 22/10 Q1022
LIVT - Trieste, Italy
Dati ricevuti: Wed, 22-Sep-2021 13:55
Non attivo
Poco nuvoloso
Poco nuvoloso
 Vento da calm
Vento: Calma
Temperatura: 20°C
P.to di Rugiada: 11°C
Umidità: 56%
Barometro: 1022 hPa
Nuvole: Poco nuvoloso
Visibilità: 10 km
Dettaglio nuvole: Poco nuvoloso 914 m
2021/09/22 11:55 LIVT 221155Z 00000KT 9999 FEW030 20/11 Q1022 RMK SCT SCT100 QUK 0 QUL 0 VIS MAR 20 KM VIS MIN 9999
 
LIRQ - Firenze/Peretola, Italy
Dati ricevuti: Wed, 22-Sep-2021 14:50
Non attivo
Sereno
Sereno
 Vento da E
Vento: E 13 km/h
Temperatura: 26°C
P.to di Rugiada: 10°C
Umidità: 37%
Barometro: 1020 hPa
Sommario: Sereno
Visibilità: superiore a 10 km
2021/09/22 12:50 LIRQ 221250Z 08007KT 040V110 CAVOK 26/10 Q1020
LIRP - Pisa (civ/It-Afb, Italy
Dati ricevuti: Wed, 22-Sep-2021 14:45
Non attivo
Sereno
Sereno
 Vento da variabile
Vento: variabile 7 km/h
Temperatura: 27°C
P.to di Rugiada: 9°C
Umidità: 32%
Barometro: 1020 hPa
Sommario: Sereno
Visibilità: superiore a 10 km
2021/09/22 12:45 LIRP 221245Z VRB04KT CAVOK 27/09 Q1020 NOSIG
 
LIRA - Roma-Ciampino(It-Afb/, Italy
Dati ricevuti: Wed, 22-Sep-2021 14:50
Non attivo
Poco nuvoloso
Poco nuvoloso
 Vento da N
Vento: N 11 km/h
Temperatura: 28°C
P.to di Rugiada: 11°C
Umidità: 35%
Barometro: 1019 hPa
Nuvole: Poco nuvoloso
Visibilità: 10 km
Dettaglio nuvole: Poco nuvoloso 1067 m
2021/09/22 12:50 LIRA 221250Z 01006KT 320V050 9999 FEW035 28/11 Q1019
LIRU - Rome/Urbe (it-Af, Italy
Dati ricevuti: Wed, 22-Sep-2021 13:50
Non attivo
Sereno
Sereno
 Vento da ONO
Vento: ONO 11 km/h
Temperatura: 28°C
P.to di Rugiada: 11°C
Umidità: 35%
Barometro: 1019 hPa
Sommario: Sereno
Visibilità: superiore a 10 km
2021/09/22 11:50 LIRU 221150Z 29006KT 260V320 CAVOK 28/11 Q1019
 
LIRG - Roma-Guidonia (it-Afb, Italy
Dati ricevuti: Wed, 22-Sep-2021 13:55
Non attivo
Poco nuvoloso
Poco nuvoloso
 Vento da N
Vento: N 17 km/h
Temperatura: 27°C
P.to di Rugiada: 10°C
Umidità: 34%
Barometro: 1019 hPa
Nuvole: Poco nuvoloso
Visibilità: 10 km
Dettaglio nuvole: Poco nuvoloso 914 m
2021/09/22 11:55 LIRG 221155Z 35009KT 9999 FEW030 27/10 Q1019
LIRE - Roma-Pratica Di Mare(, Italy
Dati ricevuti: Wed, 22-Sep-2021 13:55
Non attivo
Poco nuvoloso
Poco nuvoloso
 Vento da O
Vento: O 22 km/h
Temperatura: 25°C
P.to di Rugiada: 20°C
Umidità: 74%
Barometro: 1019 hPa
Nuvole: Poco nuvoloso
Visibilità: 10 km
Dettaglio nuvole: Poco nuvoloso 914 m
2021/09/22 11:55 LIRE 221155Z 26012KT 9999 FEW030 25/20 Q1019 RMK FEW VIS MIN 9999 WIND THR13 26010KT WIND THR31 /////KT BLU
 
LIRF - Roma-Fiumicino, Italy
Dati ricevuti: Wed, 22-Sep-2021 14:50
Non attivo
Sereno
Sereno
 Vento da O
Vento: O 20 km/h
Temperatura: 25°C
P.to di Rugiada: 17°C
Umidità: 61%
Barometro: 1018 hPa
Sommario: Sereno
Visibilità: superiore a 10 km
2021/09/22 12:50 LIRF 221250Z 27011KT CAVOK 25/17 Q1018 NOSIG
LIRL - Latina (it-Afb), Italy
Dati ricevuti: Wed, 22-Sep-2021 13:55
Non attivo
parzialmente nuvoloso
parzialmente nuvoloso
 Vento da OSO
Vento: OSO 17 km/h
Temperatura: 28°C
Indice di calore: 29°C
P.to di Rugiada: 20°C
Umidità: 62%
Barometro: 1018 hPa
Nuvole: parzialmente nuvoloso
Visibilità: 10 km
Dettaglio nuvole: parzialmente nuvoloso 762 m
2021/09/22 11:55 LIRL 221155Z 24009KT 9999 SCT025 28/20 Q1018
 
LIRH - Frosinone (it-Af, Italy
Dati ricevuti: Wed, 22-Sep-2021 13:55
Non attivo
parzialmente nuvoloso
parzialmente nuvoloso
 Vento da NO
Vento: NO 9 km/h
Temperatura: 27°C
Indice di calore: 27°C
P.to di Rugiada: 14°C
Umidità: 45%
Barometro: 1019 hPa
Nuvole: parzialmente nuvoloso
Visibilità: 10 km
Dettaglio nuvole: parzialmente nuvoloso 1067 m
2021/09/22 11:55 LIRH 221155Z 32005KT 9999 SCT035 27/14 Q1019
LIQN - Rieti, Italy
Dati ricevuti: Wed, 22-Sep-2021 13:50
Non attivo
Sereno
Sereno
 Vento da NO
Vento: NO 13 km/h
Temperatura: 26°C
P.to di Rugiada: 7°C
Umidità: 30%
Barometro: 1020 hPa
Sommario: Sereno
Visibilità: superiore a 10 km
2021/09/22 11:50 LIQN 221150Z 32007KT 260V340 CAVOK 26/07 Q1020
 
LIRK - Rieti-Monte Terminillo, Italy
Dati ricevuti: Wed, 22-Sep-2021 13:55
Non attivo

 Vento da ONO
Vento: ONO 9 km/h
Temperatura: 13°C
P.to di Rugiada: 8°C
Umidità: 72%
Barometro: 1026 hPa
2021/09/22 11:55 LIRK 221155Z AUTO 30005KT //// 13/08 Q1026
LIRV - Viterbo (it-Mil), Italy
Dati ricevuti: Wed, 22-Sep-2021 13:55
Non attivo
Poco nuvoloso
Poco nuvoloso
 Vento da N
Vento: N 13 km/h
Temperatura: 24°C
P.to di Rugiada: 9°C
Umidità: 39%
Barometro: 1020 hPa
Nuvole: Poco nuvoloso
Visibilità: 10 km
Dettaglio nuvole: Poco nuvoloso 762 m
2021/09/22 11:55 LIRV 221155Z 01007KT 9999 FEW025 24/09 Q1020
 
LIQO - Grosseto-Monte Argentario, Italy
Dati ricevuti: Wed, 22-Sep-2021 11:55
Non attivo
Sereno
Sereno
 Vento da calm
Vento: Calma
Temperatura: 22°C
P.to di Rugiada: 11°C
Umidità: 50%
Barometro: 1022 hPa
Sommario: Sereno
Visibilità: superiore a 10 km
2021/09/22 09:55 LIQO 220955Z 00000KT CAVOK 22/11 Q1022 RMK FEW FEW200 VAL NIN NC VIS MIN 9999
LIRZ - Perugia, Italy
Dati ricevuti: Wed, 22-Sep-2021 14:50
Non attivo
Sereno
Sereno
 Vento da NNE
Vento: NNE 17 km/h
Temperatura: 24°C
P.to di Rugiada: 9°C
Umidità: 39%
Barometro: 1020 hPa
Nuvole: Sereno
Visibilità: 10 km
2021/09/22 12:50 LIRZ 221250Z AUTO 03009KT 350V050 9999 NCD 24/09 Q1020
 
LIBP - Pescara, Italy
Dati ricevuti: Wed, 22-Sep-2021 14:50
Non attivo
Sereno
Sereno
 Vento da NE
Vento: NE 20 km/h
Temperatura: 23°C
P.to di Rugiada: 11°C
Umidità: 47%
Barometro: 1022 hPa
Nuvole: Sereno
Visibilità: 10 km
2021/09/22 12:50 LIBP 221250Z AUTO 04011KT 340V050 9999 NCD 23/11 Q1022
LIRM - Caserta-Grazzanise (it-A, Italy
Dati ricevuti: Wed, 22-Sep-2021 13:55
Non attivo
Sereno
Sereno
 Vento da variabile
Vento: variabile 0 km/h
Temperatura: 26°C
P.to di Rugiada: 15°C
Umidità: 51%
Barometro: 1019 hPa
Sommario: Sereno
Visibilità: superiore a 10 km
2021/09/22 11:55 LIRM 221155Z /////KT CAVOK 26/15 Q1019
 
LIRS - Grosseto (it-Afb, Italy
Dati ricevuti: Wed, 22-Sep-2021 13:55
Non attivo
Sereno
Sereno
 Vento da variabile
Vento: variabile 13 km/h
Temperatura: 28°C
P.to di Rugiada: 10°C
Umidità: 32%
Barometro: 1019 hPa
Sommario: Sereno
Visibilità: superiore a 10 km
2021/09/22 11:55 LIRS 221155Z VRB07KT CAVOK 28/10 Q1019
LIRN - Napoli-Capodichino, Italy
Dati ricevuti: Wed, 22-Sep-2021 14:50
Non attivo
Sereno
Sereno
 Vento da ENE
Vento: ENE 15 km/h
Temperatura: 28°C
P.to di Rugiada: 10°C
Umidità: 32%
Barometro: 1019 hPa
Sommario: Sereno
Visibilità: superiore a 10 km
2021/09/22 12:50 LIRN 221250Z 06008KT 350V100 CAVOK 28/10 Q1019 NOSIG
 
LIVF - Pesaro Urbino-Frontone, Italy
Dati ricevuti: Wed, 22-Sep-2021 08:55
Non attivo
Sereno
Sereno
 Vento da ENE
Vento: ENE 2 km/h
Temperatura: 13°C
P.to di Rugiada: 8°C
Umidità: 72%
Barometro: 1023 hPa
Sommario: Sereno
Visibilità: superiore a 10 km
2021/09/22 06:55 LIVF 220655Z 06001KT CAVOK 13/08 Q1023 RMK FEW FEW200 MON LIB VAL NW NEBBIA DIM VIS MIN 9999
LIQC - Capri, Italy
Dati ricevuti: Wed, 22-Sep-2021 13:55
Non attivo
Sereno
Sereno
 Vento da N
Vento: N 4 km/h
Temperatura: 25°C
P.to di Rugiada: 15°C
Umidità: 54%
Barometro: 1019 hPa
Sommario: Sereno
Visibilità: superiore a 10 km
2021/09/22 11:55 LIQC 221155Z 35002KT CAVOK 25/15 Q1019 RMK SCT SCT180 QUK 2 QUL 1 NE VIS MAR 20 KM VIS MIN 9999
 
LIPY - Ancona-Falconara (it-Af, Italy
Dati ricevuti: Wed, 22-Sep-2021 14:50
Non attivo
Poco nuvoloso
Poco nuvoloso
 Vento da NNE
Vento: NNE 11 km/h
Temperatura: 22°C
P.to di Rugiada: 9°C
Umidità: 44%
Barometro: 1022 hPa
Nuvole: Poco nuvoloso
Visibilità: 10 km
Dettaglio nuvole: Poco nuvoloso 7620 m
2021/09/22 12:50 LIPY 221250Z AUTO 03006KT 340V110 9999 FEW250/// 22/09 Q1022
LIRX - Monte Calamita, Italy
Dati ricevuti: Wed, 22-Sep-2021 13:55
Non attivo
Sereno
Sereno
 Vento da calm
Vento: Calma
Temperatura: 22°C
P.to di Rugiada: 15°C
Umidità: 65%
Barometro: 1020 hPa
Sommario: Sereno
Visibilità: superiore a 10 km
2021/09/22 11:55 LIRX 221155Z 00000KT CAVOK 22/15 Q1020 RMK SKC VIS MIN 9999 VIS MAR 30 KM
 
LIEB - Cape Bellavista, Italy
Dati ricevuti: Wed, 22-Sep-2021 13:55
Non attivo
Poco nuvoloso
Poco nuvoloso
 Vento da ESE
Vento: ESE 17 km/h
Temperatura: 28°C
Indice di calore: 29°C
P.to di Rugiada: 18°C
Umidità: 55%
Barometro: 1019 hPa
Nuvole: Poco nuvoloso
Visibilità: 10 km
Dettaglio nuvole: Poco nuvoloso 1006 m
2021/09/22 11:55 LIEB 221155Z 11009KT 9999 FEW033 28/18 Q1019 RMK FEW QUK 2 QUL 0 VIS MAR 30 KM MON W CIME INC VIS MIN 9999
LIEC - Cape Carbonara, Italy
Dati ricevuti: Wed, 22-Sep-2021 13:55
Non attivo
Poco nuvoloso
Poco nuvoloso
 Vento da ENE
Vento: ENE 19 km/h
Temperatura: 28°C
Indice di calore: 30°C
P.to di Rugiada: 22°C
Umidità: 70%
Barometro: 1018 hPa
Nuvole: Poco nuvoloso
Visibilità: 10 km
Dettaglio nuvole: Poco nuvoloso 610 m
2021/09/22 11:55 LIEC 221155Z 07010KT 9999 FEW020 28/22 Q1018 RMK FEW QUK 3 QUL 0 VIS MAR 20 KM VIS MIN 9999
 
LIED - Cagliari-Decimomannu(It-A, Italy
Dati ricevuti: Wed, 22-Sep-2021 13:55
Non attivo
Poco nuvoloso
Poco nuvoloso
 Vento da S
Vento: S 17 km/h
Temperatura: 30°C
Indice di calore: 33°C
P.to di Rugiada: 21°C
Umidità: 59%
Barometro: 1017 hPa
Nuvole: Poco nuvoloso
Visibilità: 10 km
Dettaglio nuvole: Poco nuvoloso 762 m
2021/09/22 11:55 LIED 221155Z 17009KT 9999 FEW025 30/21 Q1017 RMK FEW VIS MIN 9999 WIND THR35 17008KT WIND THR17 17007KT BLU
LIEE - Cagliari-Elmas(A, Italy
Dati ricevuti: Wed, 22-Sep-2021 14:50
Non attivo
Poco nuvoloso
Poco nuvoloso
 Vento da S
Vento: S 17 km/h
Temperatura: 28°C
Indice di calore: 29°C
P.to di Rugiada: 19°C
Umidità: 58%
Barometro: 1017 hPa
Nuvole: Poco nuvoloso
Visibilità: 10 km
Dettaglio nuvole: Poco nuvoloso 914 m
2021/09/22 12:50 LIEE 221250Z 17009KT 9999 FEW030 28/19 Q1017
 
LIEO - Olbia-Costa Smeralda, Italy
Dati ricevuti: Wed, 22-Sep-2021 14:50
Non attivo
Poco nuvoloso
Poco nuvoloso
 Vento da ENE
Vento: ENE 15 km/h
Temperatura: 27°C
Indice di calore: 28°C
P.to di Rugiada: 17°C
Umidità: 54%
Barometro: 1019 hPa
Nuvole: Poco nuvoloso
Visibilità: 10 km
Dettaglio nuvole: Poco nuvoloso 914 m
2021/09/22 12:50 LIEO 221250Z 06008KT 030V110 9999 FEW030 27/17 Q1019
LIEA - Alghero, Italy
Dati ricevuti: Wed, 22-Sep-2021 14:50
Non attivo
Poco nuvoloso
Poco nuvoloso
 Vento da NNE
Vento: NNE 13 km/h
Temperatura: 29°C
Indice di calore: 29°C
P.to di Rugiada: 18°C
Umidità: 51%
Barometro: 1018 hPa
Nuvole: Poco nuvoloso
Visibilità: 10 km
Dettaglio nuvole: Poco nuvoloso 1280 m
2021/09/22 12:50 LIEA 221250Z 02007KT 320V060 9999 FEW042 29/18 Q1018
 
LICA - Catanzaro-Lamezia Terme, Italy
Dati ricevuti: Wed, 22-Sep-2021 14:50
Non attivo
Poco nuvoloso
Poco nuvoloso
 Vento da ONO
Vento: ONO 9 km/h
Temperatura: 28°C
Indice di calore: 28°C
P.to di Rugiada: 17°C
Umidità: 51%
Barometro: 1017 hPa
Nuvole: Poco nuvoloso
Visibilità: 10 km
Dettaglio nuvole: Poco nuvoloso 1402 m
2021/09/22 12:50 LICA 221250Z AUTO 29005KT 250V340 9999 FEW046/// 28/17 Q1017
LIBQ - Cosenza-Monte Scuro, Italy
Dati ricevuti: Tue, 21-Sep-2021 15:55
Non attivo
parzialmente nuvoloso
parzialmente nuvoloso
 Vento da O
Vento: O 6 km/h
Temperatura: 18°C
P.to di Rugiada: 5°C
Umidità: 43%
Barometro: 1027 hPa
Nuvole: parzialmente nuvoloso
Visibilità: 10 km
Dettaglio nuvole: Poco nuvoloso 152 m
parzialmente nuvoloso 914 m
2021/09/21 13:55 LIBQ 211355Z 26003KT 9999 FEW005 SCT030 18/05 Q1027
 
LICR - Reggio Calabria, Italy
Dati ricevuti: Wed, 22-Sep-2021 14:50
Non attivo
Molto nuvoloso
Molto nuvoloso
 Vento da SSO
Vento: SSO 11 km/h
Temperatura: 26°C
P.to di Rugiada: 18°C
Umidità: 61%
Barometro: 1018 hPa
Nuvole: Molto nuvoloso
Visibilità: 10 km
Dettaglio nuvole: parzialmente nuvoloso 3658 m
Molto nuvoloso 4572 m
2021/09/22 12:50 LICR 221250Z AUTO 21006KT 9999 SCT120/// BKN150/// 26/18 Q1018
LIBV - Bari-Gioia Del Colle, Italy
Dati ricevuti: Wed, 22-Sep-2021 13:55
Non attivo
Poco nuvoloso
Poco nuvoloso
 Vento da NNO
Vento: NNO 28 km/h
Temperatura: 22°C
P.to di Rugiada: 9°C
Umidità: 44%
Barometro: 1019 hPa
Nuvole: Poco nuvoloso
Visibilità: 10 km
Dettaglio nuvole: Poco nuvoloso 1219 m
2021/09/22 11:55 LIBV 221155Z 33015KT 9999 FEW040 22/09 Q1019 RMK BKN SCT200 VIS MIN 9999 WIND THR32 35015KT WIND THR14 34017KT BLU
 
LIBD - Bari-Palese Macchie, Italy
Dati ricevuti: Wed, 22-Sep-2021 14:50
Non attivo
Sereno
Sereno
 Vento da NNO
Vento: NNO 22 km/h
Temperatura: 23°C
P.to di Rugiada: 9°C
Umidità: 41%
Barometro: 1019 hPa
Sommario: Sereno
Visibilità: superiore a 10 km
2021/09/22 12:50 LIBD 221250Z 33012KT 300V020 CAVOK 23/09 Q1019
LIBR - Brindisi-Casale, Italy
Dati ricevuti: Wed, 22-Sep-2021 14:50
Non attivo
Poco nuvoloso
Poco nuvoloso
 Vento da NNO
Vento: NNO 33 km/h
Temperatura: 23°C
P.to di Rugiada: 10°C
Umidità: 44%
Barometro: 1018 hPa
Nuvole: Poco nuvoloso
Visibilità: 10 km
Dettaglio nuvole: Poco nuvoloso 914 m
2021/09/22 12:50 LIBR 221250Z 33018KT 9999 FEW030 23/10 Q1018
 
LIRT - Trevico, Italy
Dati ricevuti: Tue, 21-Sep-2021 15:55
Non attivo
parzialmente nuvoloso
parzialmente nuvoloso
 Vento da SSO
Vento: SSO 11 km/h
Temperatura: 19°C
P.to di Rugiada: 5°C
Umidità: 40%
Barometro: 1024 hPa
Nuvole: parzialmente nuvoloso
Visibilità: 10 km
Dettaglio nuvole: parzialmente nuvoloso 305 m
2021/09/21 13:55 LIRT 211355Z 20006KT 9999 SCT010 19/05 Q1024
LICB - Comiso, Italy
Dati ricevuti: Wed, 22-Sep-2021 14:50
Non attivo
Sereno
Sereno
 Vento da ESE
Vento: ESE 13 km/h
Temperatura: 30°C
Indice di calore: 30°C
P.to di Rugiada: 16°C
Umidità: 43%
Barometro: 1018 hPa
Nuvole: Sereno
Visibilità: 10 km
2021/09/22 12:50 LICB 221250Z AUTO 11007KT 080V170 9999 NCD 30/16 Q1018
 
LICL - Gela, Italy
Dati ricevuti: Wed, 22-Sep-2021 13:55
Non attivo
Poco nuvoloso
Poco nuvoloso
 Vento da SSO
Vento: SSO 20 km/h
Temperatura: 28°C
Indice di calore: 29°C
P.to di Rugiada: 20°C
Umidità: 62%
Barometro: 1018 hPa
Nuvole: Poco nuvoloso
Visibilità: 10 km
Dettaglio nuvole: Poco nuvoloso 1524 m
2021/09/22 11:55 LICL 221155Z 21011KT 150V230 9999 FEW050 28/20 Q1018 RMK FEW QUK 2 QUL 0 VIS MAR 20 KM VIS MIN 9999
LIBN - Lecce (it-Afb), Italy
Dati ricevuti: Wed, 22-Sep-2021 13:55
Non attivo
parzialmente nuvoloso
parzialmente nuvoloso
 Vento da NNO
Vento: NNO 28 km/h
Temperatura: 25°C
P.to di Rugiada: 16°C
Umidità: 57%
Barometro: 1018 hPa
Nuvole: parzialmente nuvoloso
Visibilità: 10 km
Dettaglio nuvole: parzialmente nuvoloso 1219 m
2021/09/22 11:55 LIBN 221155Z 33015KT 9999 SCT040 25/16 Q1018 RMK BKN SCT200 VIS MIN 9999 WIND THR14 33015KT WIND THR32 33015KT BLU
 
LICJ - Palermo-Punta Raisi, Italy
Dati ricevuti: Wed, 22-Sep-2021 14:50
Non attivo
Sereno
Sereno
 Vento da N
Vento: N 7 km/h
Temperatura: 28°C
Indice di calore: 30°C
P.to di Rugiada: 21°C
Umidità: 66%
Barometro: 1017 hPa
Sommario: Sereno
Visibilità: superiore a 10 km
2021/09/22 12:50 LICJ 221250Z 35004KT CAVOK 28/21 Q1017
LICZ - Catania-Sigonella (nas), Italy
Dati ricevuti: Wed, 22-Sep-2021 13:55
Non attivo
parzialmente nuvoloso
parzialmente nuvoloso
 Vento da E
Vento: E 15 km/h
Temperatura: 27°C
Indice di calore: 29°C
P.to di Rugiada: 21°C
Umidità: 70%
Barometro: 1018 hPa
Nuvole: parzialmente nuvoloso
Visibilità: 10 km
Dettaglio nuvole: Poco nuvoloso 610 m
parzialmente nuvoloso 914 m
2021/09/22 11:55 LICZ 221155Z 10008KT 9999 FEW020 SCT030 27/21 Q1018 RMK BKN BKN170 VIS MIN 9999 WIND THR28 10008KT WIND THR10 11008KT A3007 BLU
 
LICC - Catania-Fontanarossa, Italy
Dati ricevuti: Wed, 22-Sep-2021 14:50
Non attivo
Molto nuvoloso
Molto nuvoloso
 Vento da E
Vento: E 15 km/h
Temperatura: 26°C
P.to di Rugiada: 20°C
Umidità: 70%
Barometro: 1018 hPa
Nuvole: Molto nuvoloso
Visibilità: 10 km
Dettaglio nuvole: parzialmente nuvoloso 762 m
Molto nuvoloso 1219 m
2021/09/22 12:50 LICC 221250Z 10008KT 070V130 9999 SCT025 BKN040 26/20 Q1018
LICT - Trapani-Birgi (a, Italy
Dati ricevuti: Wed, 22-Sep-2021 13:55
Non attivo
Poco nuvoloso
Poco nuvoloso
 Vento da NO
Vento: NO 17 km/h
Temperatura: 28°C
Indice di calore: 30°C
P.to di Rugiada: 22°C
Umidità: 70%
Barometro: 1017 hPa
Nuvole: Poco nuvoloso
Visibilità: 10 km
Dettaglio nuvole: Poco nuvoloso 610 m
2021/09/22 11:55 LICT 221155Z 31009KT 9999 FEW020 28/22 Q1017
 
LICD - Agrigento-Lampedusa, Italy
Dati ricevuti: Wed, 22-Sep-2021 14:50
Non attivo
parzialmente nuvoloso
parzialmente nuvoloso
 Vento da E
Vento: E 19 km/h
Temperatura: 29°C
Indice di calore: 34°C
P.to di Rugiada: 25°C
Umidità: 79%
Barometro: 1016 hPa
Nuvole: parzialmente nuvoloso
Visibilità: 10 km
Dettaglio nuvole: parzialmente nuvoloso 457 m
2021/09/22 12:50 LICD 221250Z AUTO 10010KT 9999 SCT015/// 29/25 Q1016
LICG - Pantelleria(It-A, Italy
Dati ricevuti: Wed, 22-Sep-2021 13:50
Non attivo
parzialmente nuvoloso
parzialmente nuvoloso
 Vento da E
Vento: E 24 km/h
Temperatura: 26°C
P.to di Rugiada: 22°C
Umidità: 79%
Barometro: 1019 hPa
Nuvole: parzialmente nuvoloso
Visibilità: 10 km
Dettaglio nuvole: parzialmente nuvoloso 457 m
2021/09/22 11:50 LICG 221150Z 10013KT 070V150 9999 SCT015 26/22 Q1019


METEO PILLOLE
La più ampia escursione termica nell'arco di 24 ore negli USA
Browning - Montana
Tra il 23 e il 24 gennaio 1916 la temperatura scese da +6.6°c a -48.9°C.
Share

Non seguire questo link o sarai bannato dal sito!